sensor_id;sensor_type;location;lat;lon;timestamp;temperature;humidity
72128;DHT22;60000;51.030;7.024;2022-12-10T00:01:14;-1.24;91.88
72128;DHT22;60000;51.030;7.024;2022-12-10T00:03:40;-1.20;91.85
72128;DHT22;60000;51.030;7.024;2022-12-10T00:06:09;-1.23;91.78
72128;DHT22;60000;51.030;7.024;2022-12-10T00:08:35;-1.24;91.75
72128;DHT22;60000;51.030;7.024;2022-12-10T00:11:06;-1.24;91.68
72128;DHT22;60000;51.030;7.024;2022-12-10T00:13:33;-1.27;91.61
72128;DHT22;60000;51.030;7.024;2022-12-10T00:15:59;-1.30;91.69
72128;DHT22;60000;51.030;7.024;2022-12-10T00:18:25;-1.33;91.54
72128;DHT22;60000;51.030;7.024;2022-12-10T00:20:50;-1.35;91.48
72128;DHT22;60000;51.030;7.024;2022-12-10T00:23:15;-1.40;91.32
72128;DHT22;60000;51.030;7.024;2022-12-10T00:25:41;-1.47;91.27
72128;DHT22;60000;51.030;7.024;2022-12-10T00:28:06;-1.50;91.32
72128;DHT22;60000;51.030;7.024;2022-12-10T00:30:32;-1.54;91.39
72128;DHT22;60000;51.030;7.024;2022-12-10T00:32:58;-1.58;91.21
72128;DHT22;60000;51.030;7.024;2022-12-10T00:35:23;-1.63;91.34
72128;DHT22;60000;51.030;7.024;2022-12-10T00:37:48;-1.68;91.45
72128;DHT22;60000;51.030;7.024;2022-12-10T00:40:14;-1.71;91.57
72128;DHT22;60000;51.030;7.024;2022-12-10T00:42:39;-1.75;91.67
72128;DHT22;60000;51.030;7.024;2022-12-10T00:45:04;-1.76;91.67
72128;DHT22;60000;51.030;7.024;2022-12-10T00:47:30;-1.81;91.58
72128;DHT22;60000;51.030;7.024;2022-12-10T00:49:55;-1.83;91.75
72128;DHT22;60000;51.030;7.024;2022-12-10T00:52:20;-1.89;91.75
72128;DHT22;60000;51.030;7.024;2022-12-10T00:54:46;-1.93;91.82
72128;DHT22;60000;51.030;7.024;2022-12-10T00:57:11;-1.94;91.82
72128;DHT22;60000;51.030;7.024;2022-12-10T00:59:36;-1.97;91.92
72128;DHT22;60000;51.030;7.024;2022-12-10T01:02:02;-1.99;92.13
72128;DHT22;60000;51.030;7.024;2022-12-10T01:04:27;-2.03;92.06
72128;DHT22;60000;51.030;7.024;2022-12-10T01:06:53;-2.07;91.99
72128;DHT22;60000;51.030;7.024;2022-12-10T01:09:26;-2.09;92.13
72128;DHT22;60000;51.030;7.024;2022-12-10T01:11:52;-2.11;92.11
72128;DHT22;60000;51.030;7.024;2022-12-10T01:14:21;-2.14;92.18
72128;DHT22;60000;51.030;7.024;2022-12-10T01:16:48;-2.15;92.19
72128;DHT22;60000;51.030;7.024;2022-12-10T01:19:14;-2.23;92.13
72128;DHT22;60000;51.030;7.024;2022-12-10T01:21:39;-2.27;92.12
72128;DHT22;60000;51.030;7.024;2022-12-10T01:24:05;-2.30;92.12
72128;DHT22;60000;51.030;7.024;2022-12-10T01:26:32;-2.37;92.20
72128;DHT22;60000;51.030;7.024;2022-12-10T01:28:58;-2.40;92.16
72128;DHT22;60000;51.030;7.024;2022-12-10T01:31:26;-2.44;92.17
72128;DHT22;60000;51.030;7.024;2022-12-10T01:33:52;-2.47;92.24
72128;DHT22;60000;51.030;7.024;2022-12-10T01:36:28;-2.51;92.38
72128;DHT22;60000;51.030;7.024;2022-12-10T01:38:54;-2.55;92.32
72128;DHT22;60000;51.030;7.024;2022-12-10T01:41:30;-2.61;92.47
72128;DHT22;60000;51.030;7.024;2022-12-10T01:44:57;-2.65;92.38
72128;DHT22;60000;51.030;7.024;2022-12-10T01:46:55;-2.66;92.51
72128;DHT22;60000;51.030;7.024;2022-12-10T01:49:23;-2.71;92.67
72128;DHT22;60000;51.030;7.024;2022-12-10T01:51:52;-2.74;92.62
72128;DHT22;60000;51.030;7.024;2022-12-10T01:54:26;-2.76;92.70
72128;DHT22;60000;51.030;7.024;2022-12-10T01:57:33;-2.82;92.69
72128;DHT22;60000;51.030;7.024;2022-12-10T01:59:55;-2.86;92.71
72128;DHT22;60000;51.030;7.024;2022-12-10T02:02:28;-2.92;92.77
72128;DHT22;60000;51.030;7.024;2022-12-10T02:10:31;-2.99;92.98
72128;DHT22;60000;51.030;7.024;2022-12-10T02:15:32;-3.02;93.21
72128;DHT22;60000;51.030;7.024;2022-12-10T02:18:19;-3.06;93.05
72128;DHT22;60000;51.030;7.024;2022-12-10T02:20:51;-3.10;93.20
72128;DHT22;60000;51.030;7.024;2022-12-10T02:23:32;-3.16;93.13
72128;DHT22;60000;51.030;7.024;2022-12-10T02:30:58;-3.24;93.23
72128;DHT22;60000;51.030;7.024;2022-12-10T02:33:25;-3.26;93.37
72128;DHT22;60000;51.030;7.024;2022-12-10T02:35:53;-3.29;93.29
72128;DHT22;60000;51.030;7.024;2022-12-10T02:38:40;-3.32;93.35
72128;DHT22;60000;51.030;7.024;2022-12-10T02:41:22;-3.34;93.47
72128;DHT22;60000;51.030;7.024;2022-12-10T02:43:52;-3.39;93.49
72128;DHT22;60000;51.030;7.024;2022-12-10T02:46:17;-3.40;93.57
72128;DHT22;60000;51.030;7.024;2022-12-10T02:48:45;-3.43;93.50
72128;DHT22;60000;51.030;7.024;2022-12-10T02:51:11;-3.46;93.42
72128;DHT22;60000;51.030;7.024;2022-12-10T02:53:44;-3.51;93.37
72128;DHT22;60000;51.030;7.024;2022-12-10T02:59:25;-3.55;93.66
72128;DHT22;60000;51.030;7.024;2022-12-10T03:02:18;-3.61;93.52
72128;DHT22;60000;51.030;7.024;2022-12-10T03:04:52;-3.64;93.67
72128;DHT22;60000;51.030;7.024;2022-12-10T03:07:24;-3.62;93.71
72128;DHT22;60000;51.030;7.024;2022-12-10T03:09:54;-3.65;93.75
72128;DHT22;60000;51.030;7.024;2022-12-10T03:12:34;-3.71;93.64
72128;DHT22;60000;51.030;7.024;2022-12-10T03:15:03;-3.71;93.66
72128;DHT22;60000;51.030;7.024;2022-12-10T03:17:30;-3.74;93.67
72128;DHT22;60000;51.030;7.024;2022-12-10T03:19:57;-3.77;93.77
72128;DHT22;60000;51.030;7.024;2022-12-10T03:22:24;-3.77;93.94
72128;DHT22;60000;51.030;7.024;2022-12-10T03:24:50;-3.78;93.91
72128;DHT22;60000;51.030;7.024;2022-12-10T03:27:16;-3.79;93.81
72128;DHT22;60000;51.030;7.024;2022-12-10T03:29:49;-3.81;93.89
72128;DHT22;60000;51.030;7.024;2022-12-10T03:32:16;-3.82;93.80
72128;DHT22;60000;51.030;7.024;2022-12-10T03:34:44;-3.84;93.94
72128;DHT22;60000;51.030;7.024;2022-12-10T03:37:10;-3.84;93.96
72128;DHT22;60000;51.030;7.024;2022-12-10T03:39:37;-3.81;94.23
72128;DHT22;60000;51.030;7.024;2022-12-10T03:42:06;-3.77;94.40
72128;DHT22;60000;51.030;7.024;2022-12-10T03:44:34;-3.74;94.50
72128;DHT22;60000;51.030;7.024;2022-12-10T03:47:01;-3.70;94.68
72128;DHT22;60000;51.030;7.024;2022-12-10T03:49:26;-3.62;94.81
72128;DHT22;60000;51.030;7.024;2022-12-10T03:51:52;-3.57;94.81
72128;DHT22;60000;51.030;7.024;2022-12-10T03:54:17;-3.54;94.92
72128;DHT22;60000;51.030;7.024;2022-12-10T03:56:43;-3.47;95.08
72128;DHT22;60000;51.030;7.024;2022-12-10T03:59:08;-3.41;95.04
72128;DHT22;60000;51.030;7.024;2022-12-10T04:01:33;-3.39;95.06
72128;DHT22;60000;51.030;7.024;2022-12-10T04:03:59;-3.32;95.19
72128;DHT22;60000;51.030;7.024;2022-12-10T04:06:24;-3.27;95.07
72128;DHT22;60000;51.030;7.024;2022-12-10T04:08:52;-3.21;95.08
72128;DHT22;60000;51.030;7.024;2022-12-10T04:11:18;-3.16;95.07
72128;DHT22;60000;51.030;7.024;2022-12-10T04:13:44;-3.14;95.15
72128;DHT22;60000;51.030;7.024;2022-12-10T04:16:29;-3.04;95.08
72128;DHT22;60000;51.030;7.024;2022-12-10T04:19:01;-3.02;94.99
72128;DHT22;60000;51.030;7.024;2022-12-10T04:21:27;-2.95;95.07
72128;DHT22;60000;51.030;7.024;2022-12-10T04:24:13;-2.91;95.10
72128;DHT22;60000;51.030;7.024;2022-12-10T04:27:01;-2.83;95.13
72128;DHT22;60000;51.030;7.024;2022-12-10T04:29:28;-2.82;94.90
72128;DHT22;60000;51.030;7.024;2022-12-10T04:31:54;-2.79;94.91
72128;DHT22;60000;51.030;7.024;2022-12-10T04:34:20;-2.74;95.00
72128;DHT22;60000;51.030;7.024;2022-12-10T04:36:46;-2.69;94.99
72128;DHT22;60000;51.030;7.024;2022-12-10T04:39:11;-2.68;94.88
72128;DHT22;60000;51.030;7.024;2022-12-10T04:41:39;-2.62;94.86
72128;DHT22;60000;51.030;7.024;2022-12-10T04:44:04;-2.60;94.84
72128;DHT22;60000;51.030;7.024;2022-12-10T04:46:29;-2.58;94.82
72128;DHT22;60000;51.030;7.024;2022-12-10T04:48:55;-2.52;94.93
72128;DHT22;60000;51.030;7.024;2022-12-10T04:51:20;-2.50;94.95
72128;DHT22;60000;51.030;7.024;2022-12-10T04:53:45;-2.43;94.92
72128;DHT22;60000;51.030;7.024;2022-12-10T04:56:11;-2.43;94.81
72128;DHT22;60000;51.030;7.024;2022-12-10T04:58:36;-2.38;94.88
72128;DHT22;60000;51.030;7.024;2022-12-10T05:01:07;-2.34;94.88
72128;DHT22;60000;51.030;7.024;2022-12-10T05:03:33;-2.34;94.83
72128;DHT22;60000;51.030;7.024;2022-12-10T05:06:08;-2.29;94.73
72128;DHT22;60000;51.030;7.024;2022-12-10T05:08:35;-2.29;94.74
72128;DHT22;60000;51.030;7.024;2022-12-10T05:11:03;-2.24;94.67
72128;DHT22;60000;51.030;7.024;2022-12-10T05:13:28;-2.22;94.75
72128;DHT22;60000;51.030;7.024;2022-12-10T05:15:54;-2.17;94.75
72128;DHT22;60000;51.030;7.024;2022-12-10T05:18:19;-2.13;94.72
72128;DHT22;60000;51.030;7.024;2022-12-10T05:20:44;-2.14;94.74
72128;DHT22;60000;51.030;7.024;2022-12-10T05:23:09;-2.09;94.74
72128;DHT22;60000;51.030;7.024;2022-12-10T05:26:09;-2.06;94.45
72128;DHT22;60000;51.030;7.024;2022-12-10T05:28:42;-2.03;94.46
72128;DHT22;60000;51.030;7.024;2022-12-10T05:31:16;-1.99;94.44
72128;DHT22;60000;51.030;7.024;2022-12-10T05:33:42;-1.97;94.45
72128;DHT22;60000;51.030;7.024;2022-12-10T05:36:09;-1.96;94.38
72128;DHT22;60000;51.030;7.024;2022-12-10T05:38:35;-1.92;94.24
72128;DHT22;60000;51.030;7.024;2022-12-10T05:41:04;-1.89;94.27
72128;DHT22;60000;51.030;7.024;2022-12-10T05:43:30;-1.87;94.27
72128;DHT22;60000;51.030;7.024;2022-12-10T05:46:03;-1.85;94.22
72128;DHT22;60000;51.030;7.024;2022-12-10T05:48:29;-1.85;94.20
72128;DHT22;60000;51.030;7.024;2022-12-10T05:50:55;-1.79;94.16
72128;DHT22;60000;51.030;7.024;2022-12-10T05:53:20;-1.79;94.10
72128;DHT22;60000;51.030;7.024;2022-12-10T05:55:45;-1.78;94.13
72128;DHT22;60000;51.030;7.024;2022-12-10T05:58:11;-1.75;94.01
72128;DHT22;60000;51.030;7.024;2022-12-10T06:00:38;-1.72;94.02
72128;DHT22;60000;51.030;7.024;2022-12-10T06:03:04;-1.72;93.85
72128;DHT22;60000;51.030;7.024;2022-12-10T06:05:29;-1.71;93.79
72128;DHT22;60000;51.030;7.024;2022-12-10T06:07:54;-1.71;93.77
72128;DHT22;60000;51.030;7.024;2022-12-10T06:10:20;-1.69;93.70
72128;DHT22;60000;51.030;7.024;2022-12-10T06:12:45;-1.66;93.56
72128;DHT22;60000;51.030;7.024;2022-12-10T06:15:10;-1.63;93.65
72128;DHT22;60000;51.030;7.024;2022-12-10T06:17:35;-1.63;93.53
72128;DHT22;60000;51.030;7.024;2022-12-10T06:20:01;-1.63;93.51
72128;DHT22;60000;51.030;7.024;2022-12-10T06:22:26;-1.61;93.55
72128;DHT22;60000;51.030;7.024;2022-12-10T06:24:51;-1.62;93.47
72128;DHT22;60000;51.030;7.024;2022-12-10T06:27:17;-1.61;93.43
72128;DHT22;60000;51.030;7.024;2022-12-10T06:29:44;-1.58;93.23
72128;DHT22;60000;51.030;7.024;2022-12-10T06:32:09;-1.62;93.07
72128;DHT22;60000;51.030;7.024;2022-12-10T06:34:34;-1.63;92.95
72128;DHT22;60000;51.030;7.024;2022-12-10T06:37:00;-1.59;93.13
72128;DHT22;60000;51.030;7.024;2022-12-10T06:39:25;-1.61;93.07
72128;DHT22;60000;51.030;7.024;2022-12-10T06:41:50;-1.61;92.98
72128;DHT22;60000;51.030;7.024;2022-12-10T06:44:16;-1.61;93.04
72128;DHT22;60000;51.030;7.024;2022-12-10T06:46:41;-1.58;93.13
72128;DHT22;60000;51.030;7.024;2022-12-10T06:49:07;-1.56;93.06
72128;DHT22;60000;51.030;7.024;2022-12-10T06:51:33;-1.54;93.02
72128;DHT22;60000;51.030;7.024;2022-12-10T06:53:59;-1.52;93.01
72128;DHT22;60000;51.030;7.024;2022-12-10T06:56:24;-1.54;92.97
72128;DHT22;60000;51.030;7.024;2022-12-10T06:58:50;-1.51;92.92
72128;DHT22;60000;51.030;7.024;2022-12-10T07:01:20;-1.52;92.76
72128;DHT22;60000;51.030;7.024;2022-12-10T07:03:51;-1.55;92.60
72128;DHT22;60000;51.030;7.024;2022-12-10T07:06:18;-1.54;92.61
72128;DHT22;60000;51.030;7.024;2022-12-10T07:08:44;-1.54;92.67
72128;DHT22;60000;51.030;7.024;2022-12-10T07:11:12;-1.52;92.60
72128;DHT22;60000;51.030;7.024;2022-12-10T07:13:38;-1.51;92.66
72128;DHT22;60000;51.030;7.024;2022-12-10T07:16:15;-1.51;92.69
72128;DHT22;60000;51.030;7.024;2022-12-10T07:18:40;-1.48;92.72
72128;DHT22;60000;51.030;7.024;2022-12-10T07:21:20;-1.50;92.65
72128;DHT22;60000;51.030;7.024;2022-12-10T07:23:46;-1.48;92.60
72128;DHT22;60000;51.030;7.024;2022-12-10T07:26:12;-1.47;92.55
72128;DHT22;60000;51.030;7.024;2022-12-10T07:28:38;-1.51;92.50
72128;DHT22;60000;51.030;7.024;2022-12-10T07:31:05;-1.50;92.64
72128;DHT22;60000;51.030;7.024;2022-12-10T07:33:31;-1.50;92.63
72128;DHT22;60000;51.030;7.024;2022-12-10T07:35:56;-1.47;92.63
72128;DHT22;60000;51.030;7.024;2022-12-10T07:38:23;-1.47;92.62
72128;DHT22;60000;51.030;7.024;2022-12-10T07:40:49;-1.45;92.62
72128;DHT22;60000;51.030;7.024;2022-12-10T07:43:14;-1.44;92.46
72128;DHT22;60000;51.030;7.024;2022-12-10T07:45:40;-1.45;92.49
72128;DHT22;60000;51.030;7.024;2022-12-10T07:48:05;-1.44;92.44
72128;DHT22;60000;51.030;7.024;2022-12-10T07:50:30;-1.44;92.45
72128;DHT22;60000;51.030;7.024;2022-12-10T07:52:56;-1.45;92.54
72128;DHT22;60000;51.030;7.024;2022-12-10T07:55:21;-1.42;92.49
72128;DHT22;60000;51.030;7.024;2022-12-10T07:57:46;-1.41;92.52
72128;DHT22;60000;51.030;7.024;2022-12-10T08:00:12;-1.40;92.60
72128;DHT22;60000;51.030;7.024;2022-12-10T08:02:37;-1.40;92.69
72128;DHT22;60000;51.030;7.024;2022-12-10T08:05:03;-1.38;92.75
72128;DHT22;60000;51.030;7.024;2022-12-10T08:07:28;-1.33;92.81
72128;DHT22;60000;51.030;7.024;2022-12-10T08:09:54;-1.30;92.69
72128;DHT22;60000;51.030;7.024;2022-12-10T08:12:19;-1.28;92.67
72128;DHT22;60000;51.030;7.024;2022-12-10T08:14:44;-1.25;92.80
72128;DHT22;60000;51.030;7.024;2022-12-10T08:17:10;-1.23;92.87
72128;DHT22;60000;51.030;7.024;2022-12-10T08:19:35;-1.21;92.66
72128;DHT22;60000;51.030;7.024;2022-12-10T08:22:00;-1.20;92.66
72128;DHT22;60000;51.030;7.024;2022-12-10T08:24:26;-1.17;92.69
72128;DHT22;60000;51.030;7.024;2022-12-10T08:26:51;-1.14;92.62
72128;DHT22;60000;51.030;7.024;2022-12-10T08:29:16;-1.13;92.59
72128;DHT22;60000;51.030;7.024;2022-12-10T08:31:42;-1.10;92.57
72128;DHT22;60000;51.030;7.024;2022-12-10T08:34:13;-1.05;92.72
72128;DHT22;60000;51.030;7.024;2022-12-10T08:36:38;-1.01;92.81
72128;DHT22;60000;51.030;7.024;2022-12-10T08:39:04;-0.96;92.85
72128;DHT22;60000;51.030;7.024;2022-12-10T08:41:29;-0.89;92.85
72128;DHT22;60000;51.030;7.024;2022-12-10T08:43:54;-0.84;92.91
72128;DHT22;60000;51.030;7.024;2022-12-10T08:46:21;-0.82;92.86
72128;DHT22;60000;51.030;7.024;2022-12-10T08:48:46;-0.76;92.85
72128;DHT22;60000;51.030;7.024;2022-12-10T08:51:15;-0.76;92.50
72128;DHT22;60000;51.030;7.024;2022-12-10T08:53:40;-0.70;92.35
72128;DHT22;60000;51.030;7.024;2022-12-10T08:56:08;-0.69;92.40
72128;DHT22;60000;51.030;7.024;2022-12-10T08:58:36;-0.63;92.27
72128;DHT22;60000;51.030;7.024;2022-12-10T09:01:06;-0.63;92.20
72128;DHT22;60000;51.030;7.024;2022-12-10T09:03:32;-0.58;92.26
72128;DHT22;60000;51.030;7.024;2022-12-10T09:06:02;-0.55;92.10
72128;DHT22;60000;51.030;7.024;2022-12-10T09:08:27;-0.51;92.06
72128;DHT22;60000;51.030;7.024;2022-12-10T09:10:52;-0.45;92.14
72128;DHT22;60000;51.030;7.024;2022-12-10T09:13:17;-0.39;92.12
72128;DHT22;60000;51.030;7.024;2022-12-10T09:15:49;-0.35;92.22
72128;DHT22;60000;51.030;7.024;2022-12-10T09:18:15;-0.29;91.93
72128;DHT22;60000;51.030;7.024;2022-12-10T09:20:40;-0.26;92.12
72128;DHT22;60000;51.030;7.024;2022-12-10T09:23:06;-0.22;91.79
72128;DHT22;60000;51.030;7.024;2022-12-10T09:25:31;-0.17;91.97
72128;DHT22;60000;51.030;7.024;2022-12-10T09:27:56;-0.11;92.08
72128;DHT22;60000;51.030;7.024;2022-12-10T09:30:22;-0.04;91.97
72128;DHT22;60000;51.030;7.024;2022-12-10T09:32:47;-0.04;91.75
72128;DHT22;60000;51.030;7.024;2022-12-10T09:35:12;-0.01;91.75
72128;DHT22;60000;51.030;7.024;2022-12-10T09:37:44;0.00;91.72
72128;DHT22;60000;51.030;7.024;2022-12-10T09:40:15;0.06;91.75
72128;DHT22;60000;51.030;7.024;2022-12-10T09:43:04;0.07;91.61
72128;DHT22;60000;51.030;7.024;2022-12-10T09:48:18;0.06;91.10
72128;DHT22;60000;51.030;7.024;2022-12-10T09:50:50;0.09;91.24
72128;DHT22;60000;51.030;7.024;2022-12-10T09:53:19;0.10;91.35
72128;DHT22;60000;51.030;7.024;2022-12-10T09:55:47;0.13;90.99
72128;DHT22;60000;51.030;7.024;2022-12-10T09:58:36;0.09;90.56
72128;DHT22;60000;51.030;7.024;2022-12-10T10:01:05;0.09;90.90
72128;DHT22;60000;51.030;7.024;2022-12-10T10:03:34;0.11;91.05
72128;DHT22;60000;51.030;7.024;2022-12-10T10:06:05;0.16;91.25
72128;DHT22;60000;51.030;7.024;2022-12-10T10:08:39;0.17;90.91
72128;DHT22;60000;51.030;7.024;2022-12-10T10:11:20;0.17;91.13
72128;DHT22;60000;51.030;7.024;2022-12-10T10:13:51;0.20;91.06
72128;DHT22;60000;51.030;7.024;2022-12-10T10:16:49;0.21;91.14
72128;DHT22;60000;51.030;7.024;2022-12-10T10:19:27;0.26;91.31
72128;DHT22;60000;51.030;7.024;2022-12-10T10:21:53;0.24;90.86
72128;DHT22;60000;51.030;7.024;2022-12-10T10:24:22;0.30;91.06
72128;DHT22;60000;51.030;7.024;2022-12-10T10:26:48;0.30;90.74
72128;DHT22;60000;51.030;7.024;2022-12-10T10:29:20;0.33;90.79
72128;DHT22;60000;51.030;7.024;2022-12-10T10:31:47;0.38;90.76
72128;DHT22;60000;51.030;7.024;2022-12-10T10:36:41;0.40;90.32
72128;DHT22;60000;51.030;7.024;2022-12-10T10:41:40;0.62;90.72
72128;DHT22;60000;51.030;7.024;2022-12-10T10:44:15;0.81;90.41
72128;DHT22;60000;51.030;7.024;2022-12-10T10:46:42;0.75;88.29
72128;DHT22;60000;51.030;7.024;2022-12-10T10:49:28;0.84;88.34
72128;DHT22;60000;51.030;7.024;2022-12-10T10:52:05;1.00;89.25
72128;DHT22;60000;51.030;7.024;2022-12-10T10:54:49;1.19;89.00
72128;DHT22;60000;51.030;7.024;2022-12-10T10:57:23;1.44;89.10
72128;DHT22;60000;51.030;7.024;2022-12-10T10:59:51;1.63;88.74
72128;DHT22;60000;51.030;7.024;2022-12-10T11:02:33;1.79;85.45
72128;DHT22;60000;51.030;7.024;2022-12-10T11:05:05;1.87;86.65
72128;DHT22;60000;51.030;7.024;2022-12-10T11:07:39;1.68;83.69
72128;DHT22;60000;51.030;7.024;2022-12-10T11:12:45;1.63;85.18
72128;DHT22;60000;51.030;7.024;2022-12-10T11:17:52;1.43;84.35
72128;DHT22;60000;51.030;7.024;2022-12-10T11:20:32;1.36;84.32
72128;DHT22;60000;51.030;7.024;2022-12-10T11:23:01;1.17;84.06
72128;DHT22;60000;51.030;7.024;2022-12-10T11:25:38;1.25;85.42
72128;DHT22;60000;51.030;7.024;2022-12-10T11:33:44;1.29;85.36
72128;DHT22;60000;51.030;7.024;2022-12-10T11:39:02;1.32;85.10
72128;DHT22;60000;51.030;7.024;2022-12-10T11:42:36;1.37;85.43
72128;DHT22;60000;51.030;7.024;2022-12-10T11:50:41;1.22;84.30
72128;DHT22;60000;51.030;7.024;2022-12-10T11:53:17;1.30;85.01
72128;DHT22;60000;51.030;7.024;2022-12-10T11:59:05;1.30;84.67
72128;DHT22;60000;51.030;7.024;2022-12-10T12:04:28;1.33;83.86
72128;DHT22;60000;51.030;7.024;2022-12-10T12:15:16;1.40;83.40
72128;DHT22;60000;51.030;7.024;2022-12-10T12:17:47;1.40;83.40
72128;DHT22;60000;51.030;7.024;2022-12-10T12:20:23;1.37;83.09
72128;DHT22;60000;51.030;7.024;2022-12-10T12:22:57;1.37;82.83
72128;DHT22;60000;51.030;7.024;2022-12-10T12:25:40;1.35;81.99
72128;DHT22;60000;51.030;7.024;2022-12-10T12:28:22;1.35;82.63
72128;DHT22;60000;51.030;7.024;2022-12-10T12:30:57;1.32;82.32
72128;DHT22;60000;51.030;7.024;2022-12-10T12:33:45;1.33;82.36
72128;DHT22;60000;51.030;7.024;2022-12-10T12:36:24;1.29;82.09
72128;DHT22;60000;51.030;7.024;2022-12-10T12:38:59;1.27;81.78
72128;DHT22;60000;51.030;7.024;2022-12-10T12:44:21;1.29;82.09
72128;DHT22;60000;51.030;7.024;2022-12-10T12:46:49;1.33;82.32
72128;DHT22;60000;51.030;7.024;2022-12-10T12:49:20;1.37;82.15
72128;DHT22;60000;51.030;7.024;2022-12-10T12:51:56;1.36;82.01
72128;DHT22;60000;51.030;7.024;2022-12-10T12:54:24;1.35;81.68
72128;DHT22;60000;51.030;7.024;2022-12-10T13:00:01;1.35;81.93
72128;DHT22;60000;51.030;7.024;2022-12-10T13:03:04;1.32;80.99
72128;DHT22;60000;51.030;7.024;2022-12-10T13:05:35;1.30;81.42
72128;DHT22;60000;51.030;7.024;2022-12-10T13:10:59;1.33;81.92
72128;DHT22;60000;51.030;7.024;2022-12-10T13:13:33;1.35;81.98
72128;DHT22;60000;51.030;7.024;2022-12-10T13:24:42;1.39;81.42
72128;DHT22;60000;51.030;7.024;2022-12-10T13:32:15;1.37;81.78
72128;DHT22;60000;51.030;7.024;2022-12-10T13:34:41;1.39;81.53
72128;DHT22;60000;51.030;7.024;2022-12-10T13:42:38;1.44;81.80
72128;DHT22;60000;51.030;7.024;2022-12-10T13:45:26;1.47;81.81
72128;DHT22;60000;51.030;7.024;2022-12-10T13:47:55;1.44;81.74
72128;DHT22;60000;51.030;7.024;2022-12-10T13:56:10;1.43;81.91
72128;DHT22;60000;51.030;7.024;2022-12-10T13:59:00;1.39;81.67
72128;DHT22;60000;51.030;7.024;2022-12-10T14:01:40;1.39;81.93
72128;DHT22;60000;51.030;7.024;2022-12-10T14:06:37;1.39;81.90
72128;DHT22;60000;51.030;7.024;2022-12-10T14:09:05;1.37;81.74
72128;DHT22;60000;51.030;7.024;2022-12-10T14:11:34;1.35;81.81
72128;DHT22;60000;51.030;7.024;2022-12-10T14:14:01;1.36;81.97
72128;DHT22;60000;51.030;7.024;2022-12-10T14:16:29;1.30;81.53
72128;DHT22;60000;51.030;7.024;2022-12-10T14:19:05;1.30;81.52
72128;DHT22;60000;51.030;7.024;2022-12-10T14:21:35;1.29;81.78
72128;DHT22;60000;51.030;7.024;2022-12-10T14:24:02;1.27;81.85
72128;DHT22;60000;51.030;7.024;2022-12-10T14:26:30;1.25;81.66
72128;DHT22;60000;51.030;7.024;2022-12-10T14:29:42;1.17;81.53
72128;DHT22;60000;51.030;7.024;2022-12-10T14:31:49;1.16;81.61
72128;DHT22;60000;51.030;7.024;2022-12-10T14:34:23;1.12;81.64
72128;DHT22;60000;51.030;7.024;2022-12-10T14:36:52;1.09;81.74
72128;DHT22;60000;51.030;7.024;2022-12-10T14:39:20;1.10;81.75
72128;DHT22;60000;51.030;7.024;2022-12-10T14:41:50;1.06;81.80
72128;DHT22;60000;51.030;7.024;2022-12-10T14:44:17;1.02;81.75
72128;DHT22;60000;51.030;7.024;2022-12-10T14:46:43;1.03;82.19
72128;DHT22;60000;51.030;7.024;2022-12-10T14:49:21;1.03;82.00
72128;DHT22;60000;51.030;7.024;2022-12-10T14:51:48;1.02;82.39
72128;DHT22;60000;51.030;7.024;2022-12-10T14:54:33;1.02;82.15
72128;DHT22;60000;51.030;7.024;2022-12-10T14:57:05;1.00;82.42
72128;DHT22;60000;51.030;7.024;2022-12-10T14:59:40;1.02;82.61
72128;DHT22;60000;51.030;7.024;2022-12-10T15:02:24;1.02;82.79
72128;DHT22;60000;51.030;7.024;2022-12-10T15:04:50;1.00;82.50
72128;DHT22;60000;51.030;7.024;2022-12-10T15:07:22;1.03;82.80
72128;DHT22;60000;51.030;7.024;2022-12-10T15:09:50;1.00;82.87
72128;DHT22;60000;51.030;7.024;2022-12-10T15:28:28;0.91;82.97
72128;DHT22;60000;51.030;7.024;2022-12-10T15:31:08;0.89;83.07
72128;DHT22;60000;51.030;7.024;2022-12-10T15:38:52;0.86;83.11
72128;DHT22;60000;51.030;7.024;2022-12-10T15:41:33;0.86;83.25
72128;DHT22;60000;51.030;7.024;2022-12-10T15:44:16;0.86;83.47
72128;DHT22;60000;51.030;7.024;2022-12-10T15:46:58;0.85;83.30
72128;DHT22;60000;51.030;7.024;2022-12-10T15:49:24;0.85;83.30
72128;DHT22;60000;51.030;7.024;2022-12-10T15:51:50;0.84;83.38
72128;DHT22;60000;51.030;7.024;2022-12-10T15:56:57;0.82;83.28
72128;DHT22;60000;51.030;7.024;2022-12-10T15:59:23;0.84;83.57
72128;DHT22;60000;51.030;7.024;2022-12-10T16:01:48;0.81;83.65
72128;DHT22;60000;51.030;7.024;2022-12-10T16:04:13;0.79;83.59
72128;DHT22;60000;51.030;7.024;2022-12-10T16:06:39;0.82;83.83
72128;DHT22;60000;51.030;7.024;2022-12-10T16:09:05;0.82;83.96
72128;DHT22;60000;51.030;7.024;2022-12-10T16:11:31;0.82;83.89
72128;DHT22;60000;51.030;7.024;2022-12-10T16:13:56;0.79;83.81
72128;DHT22;60000;51.030;7.024;2022-12-10T16:16:22;0.78;83.94
72128;DHT22;60000;51.030;7.024;2022-12-10T16:18:48;0.78;84.11
72128;DHT22;60000;51.030;7.024;2022-12-10T16:21:14;0.78;84.22
72128;DHT22;60000;51.030;7.024;2022-12-10T16:23:39;0.79;84.30
72128;DHT22;60000;51.030;7.024;2022-12-10T16:26:23;0.79;84.21
72128;DHT22;60000;51.030;7.024;2022-12-10T16:28:49;0.78;84.06
72128;DHT22;60000;51.030;7.024;2022-12-10T16:31:18;0.78;84.23
72128;DHT22;60000;51.030;7.024;2022-12-10T16:33:44;0.78;84.23
72128;DHT22;60000;51.030;7.024;2022-12-10T16:36:11;0.78;84.22
72128;DHT22;60000;51.030;7.024;2022-12-10T16:38:37;0.79;84.15
72128;DHT22;60000;51.030;7.024;2022-12-10T16:41:11;0.76;84.04
72128;DHT22;60000;51.030;7.024;2022-12-10T16:43:39;0.75;84.11
72128;DHT22;60000;51.030;7.024;2022-12-10T16:46:04;0.74;84.19
72128;DHT22;60000;51.030;7.024;2022-12-10T16:48:30;0.78;84.24
72128;DHT22;60000;51.030;7.024;2022-12-10T16:50:57;0.76;84.45
72128;DHT22;60000;51.030;7.024;2022-12-10T16:53:25;0.81;84.57
72128;DHT22;60000;51.030;7.024;2022-12-10T16:55:51;0.82;84.57
72128;DHT22;60000;51.030;7.024;2022-12-10T16:58:17;0.81;84.57
72128;DHT22;60000;51.030;7.024;2022-12-10T17:00:48;0.79;84.53
72128;DHT22;60000;51.030;7.024;2022-12-10T17:03:16;0.78;84.60
72128;DHT22;60000;51.030;7.024;2022-12-10T17:05:52;0.79;84.67
72128;DHT22;60000;51.030;7.024;2022-12-10T17:08:18;0.79;84.65
72128;DHT22;60000;51.030;7.024;2022-12-10T17:10:44;0.79;84.69
72128;DHT22;60000;51.030;7.024;2022-12-10T17:13:29;0.78;84.58
72128;DHT22;60000;51.030;7.024;2022-12-10T17:15:55;0.79;84.66
72128;DHT22;60000;51.030;7.024;2022-12-10T17:18:21;0.78;84.63
72128;DHT22;60000;51.030;7.024;2022-12-10T17:20:47;0.75;84.76
72128;DHT22;60000;51.030;7.024;2022-12-10T17:23:13;0.74;84.75
72128;DHT22;60000;51.030;7.024;2022-12-10T17:25:40;0.74;84.75
72128;DHT22;60000;51.030;7.024;2022-12-10T17:28:06;0.71;84.64
72128;DHT22;60000;51.030;7.024;2022-12-10T17:30:36;0.71;84.63
72128;DHT22;60000;51.030;7.024;2022-12-10T17:33:01;0.69;84.48
72128;DHT22;60000;51.030;7.024;2022-12-10T17:35:27;0.68;84.39
72128;DHT22;60000;51.030;7.024;2022-12-10T17:37:52;0.67;84.34
72128;DHT22;60000;51.030;7.024;2022-12-10T17:40:21;0.64;84.17
72128;DHT22;60000;51.030;7.024;2022-12-10T17:42:47;0.64;84.28
72128;DHT22;60000;51.030;7.024;2022-12-10T17:45:16;0.64;84.39
72128;DHT22;60000;51.030;7.024;2022-12-10T17:47:42;0.65;84.60
72128;DHT22;60000;51.030;7.024;2022-12-10T17:52:47;0.64;84.62